createdAt,value
2023-03-16T03:23:05.598Z,5.20
2023-03-16T03:25:34.938Z,5.20
2023-03-16T03:28:04.647Z,5.20
2023-03-16T03:30:32.541Z,5.20
2023-03-16T03:32:59.218Z,5.20
2023-03-16T03:35:25.846Z,5.10
2023-03-16T03:37:52.889Z,5.10
2023-03-16T03:40:20.179Z,5.10
2023-03-16T03:42:46.853Z,5.10
2023-03-16T03:45:14.503Z,5.20
2023-03-16T03:47:42.079Z,5.10
2023-03-16T03:50:10.926Z,5.20
2023-03-16T03:52:37.687Z,5.10
2023-03-16T03:55:05.879Z,5.10
2023-03-16T03:57:32.993Z,5.10
2023-03-16T03:59:59.619Z,5.10
2023-03-16T04:02:26.480Z,5.10
2023-03-16T04:04:53.222Z,5.10
2023-03-16T04:07:19.887Z,5.00
2023-03-16T04:09:46.543Z,5.10
2023-03-16T04:12:13.228Z,5.10
2023-03-16T04:14:39.862Z,5.10
2023-03-16T04:17:07.412Z,5.10
2023-03-16T04:19:34.207Z,5.10
2023-03-16T04:22:00.970Z,5.10
2023-03-16T04:24:27.726Z,5.00
2023-03-16T04:26:54.491Z,5.00
2023-03-16T04:29:21.396Z,5.00
2023-03-16T04:31:48.092Z,5.00
2023-03-16T04:34:14.958Z,5.00
2023-03-16T04:36:42.069Z,4.90
2023-03-16T04:39:10.446Z,5.00
2023-03-16T04:41:37.746Z,5.00
2023-03-16T04:44:04.711Z,5.00
2023-03-16T04:46:32.250Z,5.00
2023-03-16T04:48:59.315Z,5.00
2023-03-16T04:51:26.443Z,5.00
2023-03-16T04:53:53.561Z,5.00
2023-03-16T04:56:20.559Z,5.00
2023-03-16T04:58:49.223Z,5.00
2023-03-16T05:01:17.141Z,5.00
2023-03-16T05:03:43.957Z,5.00
2023-03-16T05:06:12.018Z,5.00
2023-03-16T05:08:38.792Z,5.00
2023-03-16T05:11:05.676Z,5.10
2023-03-16T05:13:32.874Z,5.00
2023-03-16T05:15:59.987Z,5.10
2023-03-16T05:18:26.992Z,5.10
2023-03-16T05:20:56.140Z,5.10
2023-03-16T05:23:23.451Z,5.00
2023-03-16T05:25:50.860Z,5.00
2023-03-16T05:28:18.598Z,5.10
2023-03-16T05:30:45.369Z,5.10
2023-03-16T05:33:12.598Z,5.10
2023-03-16T05:35:39.844Z,5.10
2023-03-16T05:38:06.703Z,5.10
2023-03-16T05:40:33.556Z,5.10
2023-03-16T05:43:00.592Z,5.10
2023-03-16T05:45:28.001Z,5.10
2023-03-16T05:47:54.765Z,5.10
2023-03-16T05:50:21.602Z,5.10
2023-03-16T05:52:48.449Z,5.10
2023-03-16T05:55:17.149Z,5.10
2023-03-16T05:57:44.382Z,5.10
2023-03-16T06:00:16.786Z,5.10
2023-03-16T06:02:45.217Z,5.00
2023-03-16T06:05:11.866Z,5.00
2023-03-16T06:07:38.583Z,5.10
2023-03-16T06:10:06.692Z,5.10
2023-03-16T06:12:34.546Z,5.10
2023-03-16T06:15:02.469Z,5.10
2023-03-16T06:17:29.149Z,5.10
2023-03-16T06:19:55.803Z,5.10
2023-03-16T06:22:23.953Z,5.10
2023-03-16T06:24:51.454Z,5.10
2023-03-16T06:27:20.395Z,5.20
2023-03-16T06:29:50.339Z,5.10
2023-03-16T06:32:17.158Z,5.20
2023-03-16T06:34:43.763Z,5.20
2023-03-16T06:37:10.710Z,5.20
2023-03-16T06:39:37.388Z,5.20
2023-03-16T06:42:04.949Z,5.20
2023-03-16T06:44:32.095Z,5.20
2023-03-16T06:46:59.152Z,5.20
2023-03-16T06:49:25.859Z,5.20
2023-03-16T06:51:52.674Z,5.30
2023-03-16T06:54:19.291Z,5.30
2023-03-16T06:56:46.443Z,5.30
2023-03-16T06:59:13.222Z,5.30
2023-03-16T07:01:39.912Z,5.30
2023-03-16T07:04:06.604Z,5.30
2023-03-16T07:06:33.355Z,5.30
2023-03-16T07:09:01.445Z,5.30
2023-03-16T07:11:28.262Z,5.30
2023-03-16T07:13:54.893Z,5.40
2023-03-16T07:16:22.005Z,5.40
2023-03-16T07:18:48.784Z,5.40
2023-03-16T07:21:15.664Z,5.50
2023-03-16T07:23:42.458Z,5.40
2023-03-16T07:26:09.238Z,5.40
2023-03-16T07:28:35.883Z,5.50
2023-03-16T07:31:04.362Z,5.40
2023-03-16T07:33:35.141Z,5.50
2023-03-16T07:36:06.016Z,5.50
2023-03-16T07:38:33.522Z,5.40
2023-03-16T07:41:00.429Z,5.50
2023-03-16T07:43:27.087Z,5.50
2023-03-16T07:45:53.785Z,5.60
2023-03-16T07:48:20.953Z,5.60
2023-03-16T07:50:48.533Z,5.50
2023-03-16T07:53:48.504Z,5.50
2023-03-16T07:56:15.213Z,5.50
2023-03-16T07:58:41.853Z,5.60
2023-03-16T08:01:10.869Z,5.60
2023-03-16T08:03:38.152Z,5.60
2023-03-16T08:06:05.637Z,5.70
2023-03-16T08:08:32.949Z,5.80
2023-03-16T08:10:59.635Z,5.90
2023-03-16T08:13:27.254Z,5.80
2023-03-16T08:15:58.760Z,5.90
2023-03-16T08:18:26.590Z,5.90
2023-03-16T08:20:53.815Z,6.00
2023-03-16T08:23:21.276Z,6.00
2023-03-16T08:25:51.720Z,6.00
2023-03-16T08:28:56.349Z,6.00
2023-03-16T08:31:25.397Z,6.10
2023-03-16T08:33:52.232Z,6.10
2023-03-16T08:36:20.865Z,6.10
2023-03-16T08:39:03.708Z,6.20
2023-03-16T08:41:34.626Z,6.30
2023-03-16T08:46:55.001Z,6.30
2023-03-16T08:49:21.746Z,6.40
2023-03-16T08:51:48.493Z,6.40
2023-03-16T08:54:16.090Z,6.40
2023-03-16T08:56:43.365Z,6.50
2023-03-16T08:59:19.887Z,6.50
2023-03-16T09:01:56.901Z,6.50
2023-03-16T09:04:23.584Z,6.60
2023-03-16T09:07:07.994Z,6.60
2023-03-16T09:09:35.855Z,6.60
2023-03-16T09:12:04.446Z,6.70
2023-03-16T09:14:33.802Z,6.70
2023-03-16T09:17:00.504Z,6.70
2023-03-16T09:19:29.186Z,6.70
2023-03-16T09:21:57.347Z,6.80
2023-03-16T09:24:24.634Z,6.80
2023-03-16T09:26:51.533Z,6.80
2023-03-16T09:29:19.180Z,6.80
2023-03-16T09:31:47.293Z,6.90
2023-03-16T09:34:14.388Z,7.00
2023-03-16T09:36:41.907Z,7.00
2023-03-16T09:39:08.817Z,7.10
2023-03-16T09:41:41.529Z,7.20
2023-03-16T09:44:31.810Z,7.20
2023-03-16T09:47:01.464Z,7.30
2023-03-16T09:49:37.914Z,7.40
2023-03-16T09:52:34.694Z,7.50
2023-03-16T09:55:32.580Z,7.60
2023-03-16T09:58:01.294Z,7.70
2023-03-16T10:00:33.961Z,7.80
2023-03-16T10:03:24.911Z,7.90
2023-03-16T10:05:59.196Z,8.00
2023-03-16T10:08:43.810Z,8.10
2023-03-16T10:11:16.530Z,8.30
2023-03-16T10:14:17.546Z,8.30
2023-03-16T10:17:12.162Z,8.40
2023-03-16T10:19:43.726Z,8.50
2023-03-16T10:22:19.931Z,8.70
2023-03-16T10:25:03.842Z,8.70
2023-03-16T10:27:36.756Z,8.70
2023-03-16T10:30:19.521Z,8.90
2023-03-16T10:32:56.099Z,9.10
2023-03-16T10:35:41.774Z,9.10
2023-03-16T10:38:09.303Z,9.20
2023-03-16T10:40:39.739Z,9.30
2023-03-16T10:43:13.152Z,9.30
2023-03-16T10:45:42.556Z,9.40
2023-03-16T10:48:14.206Z,9.50
2023-03-16T10:50:43.139Z,9.60
2023-03-16T10:53:23.687Z,9.60
2023-03-16T10:55:51.472Z,9.70
2023-03-16T10:58:31.376Z,9.70
2023-03-16T11:00:58.731Z,9.90
2023-03-16T11:03:32.583Z,9.80
2023-03-16T11:06:02.362Z,9.90
2023-03-16T11:08:36.878Z,9.90
2023-03-16T11:11:24.502Z,9.90
2023-03-16T11:13:55.344Z,9.90
2023-03-16T11:16:32.622Z,10.00
2023-03-16T11:19:21.370Z,10.10
2023-03-16T11:21:54.915Z,10.10
2023-03-16T11:24:24.193Z,10.10
2023-03-16T11:26:57.873Z,10.20
2023-03-16T11:29:45.201Z,10.10
2023-03-16T11:32:18.960Z,10.30
2023-03-16T11:34:46.761Z,10.30
2023-03-16T11:37:48.856Z,10.40
2023-03-16T11:40:41.172Z,10.50
2023-03-16T11:43:53.198Z,10.60
2023-03-16T11:46:31.429Z,10.70
2023-03-16T11:49:24.517Z,10.70
2023-03-16T11:52:17.256Z,10.90
2023-03-16T11:54:55.363Z,11.00
2023-03-16T11:57:37.875Z,11.10
2023-03-16T12:00:31.403Z,11.30
2023-03-16T12:03:31.197Z,11.40
2023-03-16T12:06:22.322Z,11.50
2023-03-16T12:09:20.118Z,11.60
2023-03-16T12:11:55.004Z,11.60
2023-03-16T12:14:34.492Z,11.70
2023-03-16T12:17:10.846Z,11.90
2023-03-16T12:19:58.830Z,12.20
2023-03-16T12:23:02.139Z,12.50
2023-03-16T12:25:36.574Z,12.40
2023-03-16T12:28:05.420Z,12.50
2023-03-16T12:30:54.118Z,12.60
2023-03-16T12:33:27.059Z,12.90
2023-03-16T12:36:12.241Z,12.90
2023-03-16T12:38:58.302Z,12.80
2023-03-16T12:41:54.186Z,12.70
2023-03-16T12:44:46.830Z,12.70
2023-03-16T12:47:27.319Z,13.30
2023-03-16T12:49:54.593Z,13.10
2023-03-16T12:52:21.327Z,13.50
2023-03-16T12:54:52.126Z,13.90
2023-03-16T12:57:23.924Z,14.40
2023-03-16T12:59:58.395Z,14.50
2023-03-16T13:02:30.272Z,14.70
2023-03-16T13:05:02.743Z,14.40
2023-03-16T13:07:31.911Z,14.70
2023-03-16T13:10:10.012Z,14.70
2023-03-16T13:12:38.832Z,14.50
2023-03-16T13:15:21.421Z,14.50
2023-03-16T13:18:14.857Z,14.60
2023-03-16T13:20:54.274Z,14.80
2023-03-16T13:23:27.604Z,14.90
2023-03-16T13:26:03.312Z,15.10
2023-03-16T13:28:38.760Z,15.00
2023-03-16T13:31:27.294Z,14.60
2023-03-16T13:33:57.007Z,15.00
2023-03-16T13:36:30.073Z,15.60
2023-03-16T13:39:05.569Z,15.50
2023-03-16T13:41:32.297Z,15.80
2023-03-16T13:43:59.566Z,15.80
2023-03-16T13:46:30.831Z,16.20
2023-03-16T13:49:00.823Z,16.30
2023-03-16T13:51:30.892Z,16.50
2023-03-16T13:53:57.550Z,16.50
2023-03-16T13:56:28.973Z,17.00
2023-03-16T13:58:58.464Z,17.20
2023-03-16T14:01:25.987Z,16.90
2023-03-16T14:03:59.495Z,17.00
2023-03-16T14:06:29.078Z,16.70
2023-03-16T14:09:03.803Z,16.80
2023-03-16T14:11:33.827Z,16.70
2023-03-16T14:14:12.962Z,16.80
2023-03-16T14:16:39.672Z,17.20
2023-03-16T14:19:14.676Z,17.60
2023-03-16T14:21:44.758Z,17.80
2023-03-16T14:24:37.013Z,17.70
2023-03-16T14:27:21.135Z,17.60
2023-03-16T14:30:02.727Z,17.30
2023-03-16T14:32:32.300Z,17.50
2023-03-16T14:35:15.932Z,17.60
2023-03-16T14:37:43.586Z,17.70
2023-03-16T14:40:40.526Z,17.80
2023-03-16T14:43:10.780Z,18.10
2023-03-16T14:45:38.310Z,18.10
2023-03-16T14:48:08.504Z,18.00
2023-03-16T14:50:36.005Z,18.50
2023-03-16T14:53:04.414Z,18.10
2023-03-16T14:55:32.267Z,18.40
2023-03-16T14:57:59.099Z,18.00
2023-03-16T15:00:26.591Z,18.30
2023-03-16T15:03:08.196Z,18.20
2023-03-16T15:05:38.970Z,18.10
2023-03-16T15:08:10.849Z,17.20
2023-03-16T15:10:37.740Z,17.70
2023-03-16T15:13:14.073Z,18.20
2023-03-16T15:15:46.347Z,18.40
2023-03-16T15:18:13.088Z,17.70
2023-03-16T15:20:42.509Z,17.50
2023-03-16T15:23:15.023Z,17.70
2023-03-16T15:25:43.658Z,17.80
2023-03-16T15:28:17.407Z,17.90
2023-03-16T15:30:46.847Z,17.30
2023-03-16T15:33:14.203Z,17.80
2023-03-16T15:35:42.108Z,17.60
2023-03-16T15:38:26.997Z,17.60
2023-03-16T15:40:56.098Z,17.40
2023-03-16T15:43:25.406Z,17.40
2023-03-16T15:45:54.427Z,17.30
2023-03-16T15:48:24.567Z,17.50
2023-03-16T15:50:57.241Z,17.70
2023-03-16T15:53:34.106Z,17.50
2023-03-16T15:56:09.065Z,17.40
2023-03-16T15:58:37.999Z,17.20
2023-03-16T16:01:07.296Z,16.80
2023-03-16T16:03:34.416Z,16.30
2023-03-16T16:06:02.511Z,16.20
2023-03-16T16:08:29.185Z,16.50
2023-03-16T16:10:56.402Z,16.30
2023-03-16T16:13:43.159Z,16.70
2023-03-16T16:16:18.106Z,16.90
2023-03-16T16:18:46.614Z,16.80
2023-03-16T16:21:19.272Z,16.90
2023-03-16T16:23:46.433Z,16.90
2023-03-16T16:26:52.089Z,16.90
2023-03-16T16:29:30.093Z,16.60
2023-03-16T16:31:57.352Z,16.90
2023-03-16T16:34:25.538Z,16.90
2023-03-16T16:36:59.439Z,16.60
2023-03-16T16:39:26.664Z,16.30
2023-03-16T16:41:56.618Z,16.20
2023-03-16T16:44:33.813Z,15.90
2023-03-16T16:47:04.328Z,16.00
2023-03-16T16:49:31.374Z,15.70
2023-03-16T16:52:04.071Z,15.60
2023-03-16T16:54:32.894Z,15.40
2023-03-16T16:57:00.630Z,15.30
2023-03-16T16:59:36.948Z,15.30
2023-03-16T17:02:40.434Z,14.90
2023-03-16T17:05:20.129Z,14.90
2023-03-16T17:07:47.279Z,14.80
2023-03-16T17:10:16.633Z,14.50
2023-03-16T17:12:49.974Z,14.60
2023-03-16T17:15:29.550Z,14.60
2023-03-16T17:18:07.327Z,14.50
2023-03-16T17:20:34.444Z,14.40
2023-03-16T17:23:01.505Z,14.30
2023-03-16T17:25:28.735Z,14.00
2023-03-16T17:27:57.341Z,14.00
2023-03-16T17:30:30.171Z,13.80
2023-03-16T17:33:02.687Z,13.80
2023-03-16T17:35:29.714Z,13.90
2023-03-16T17:37:57.125Z,13.80
2023-03-16T17:40:25.455Z,13.60
2023-03-16T17:42:55.421Z,13.50
2023-03-16T17:45:28.427Z,13.50
2023-03-16T17:47:56.206Z,13.40
2023-03-16T17:50:29.233Z,13.40
2023-03-16T17:52:59.321Z,13.40
2023-03-16T17:55:26.396Z,13.40
2023-03-16T17:57:54.738Z,13.20
2023-03-16T18:00:34.162Z,13.00
2023-03-16T18:03:20.826Z,13.00
2023-03-16T18:05:47.783Z,13.00
2023-03-16T18:08:26.365Z,12.80
2023-03-16T18:10:57.530Z,12.90
2023-03-16T18:13:28.083Z,12.70
2023-03-16T18:15:55.977Z,12.70
2023-03-16T18:18:28.702Z,12.50
2023-03-16T18:20:57.221Z,12.40
2023-03-16T18:23:33.664Z,12.40
2023-03-16T18:26:04.317Z,12.30
2023-03-16T18:28:34.216Z,12.40
2023-03-16T18:31:08.758Z,12.30
2023-03-16T18:33:41.359Z,12.20
2023-03-16T18:36:29.448Z,12.10
2023-03-16T18:39:00.882Z,12.00
2023-03-16T18:41:33.639Z,11.90
2023-03-16T18:44:05.568Z,11.90
2023-03-16T18:46:39.150Z,11.80
2023-03-16T18:49:23.003Z,11.80
2023-03-16T18:51:52.466Z,11.70
2023-03-16T18:54:28.396Z,11.70
2023-03-16T18:56:58.803Z,11.50
2023-03-16T18:59:29.986Z,11.40
2023-03-16T19:01:58.292Z,11.40
2023-03-16T19:04:29.280Z,11.30
2023-03-16T19:06:57.411Z,11.20
2023-03-16T19:09:27.664Z,11.20
2023-03-16T19:11:54.786Z,11.20
2023-03-16T19:14:29.433Z,11.10
2023-03-16T19:16:57.215Z,11.00
2023-03-16T19:19:24.790Z,11.10
2023-03-16T19:21:54.634Z,11.10
2023-03-16T19:24:31.276Z,11.00
2023-03-16T19:26:58.164Z,11.00
2023-03-16T19:29:34.463Z,10.90
2023-03-16T19:32:05.053Z,10.70
2023-03-16T19:34:32.180Z,10.70
2023-03-16T19:36:58.943Z,10.70
2023-03-16T19:39:26.934Z,10.60
2023-03-16T19:41:58.420Z,10.60
2023-03-16T19:44:28.089Z,10.50
2023-03-16T19:47:05.755Z,10.50
2023-03-16T19:49:32.643Z,10.50
2023-03-16T19:52:02.881Z,10.40
2023-03-16T19:54:35.104Z,10.40
2023-03-16T19:57:07.369Z,10.30
2023-03-16T19:59:35.209Z,10.40
2023-03-16T20:02:28.174Z,10.30
2023-03-16T20:04:57.341Z,10.30
2023-03-16T20:07:29.735Z,10.30
2023-03-16T20:09:57.305Z,10.30
2023-03-16T20:12:31.797Z,10.20
2023-03-16T20:14:59.745Z,10.10
2023-03-16T20:17:29.529Z,10.20
2023-03-16T20:19:58.806Z,10.00
2023-03-16T20:22:30.621Z,10.00
2023-03-16T20:25:02.086Z,10.00
2023-03-16T20:27:28.874Z,10.00
2023-03-16T20:29:56.504Z,10.00
2023-03-16T20:32:27.917Z,10.00
2023-03-16T20:34:54.814Z,10.00
2023-03-16T20:37:24.468Z,9.90
2023-03-16T20:39:57.639Z,9.90
2023-03-16T20:42:32.200Z,9.80
2023-03-16T20:44:59.000Z,9.90
2023-03-16T20:47:26.657Z,9.90
2023-03-16T20:50:00.146Z,9.80
2023-03-16T20:52:30.697Z,9.90
